Terminal Aerodrome Forecast
Issued by NWS

Home | Current Version | Previous Version | Text Only | Print | Product List | Glossary On
Versions: 1 2 3 4 5 6 7 8 9 10 11 12 13 14 15 16 17
867
FTUS46 KEKA 220521
TAFCEC
TAF
KCEC 220521Z 2206/2306 35010KT P6SM BKN080
     FM221200 10006KT 6SM -RA BR SCT025 OVC035
     FM221500 30010G20KT P6SM -SHRAGS BKN025 OVC035
     FM221900 33015G25KT P6SM VCSH SCT035
     FM230300 35010KT P6SM SKC=

USA.gov is the U.S. government's official web portal to all federal, state and local government web resources and services.